TAF Text Data
IDs:
Format:
Raw Decoded Include METAR

Data at: 0213 UTC 14 May 2021

KMTN 132320Z 1400/1424 15004KT P6SM FEW090
  FM140100 31003KT P6SM FEW080
  FM141400 31004KT P6SM SCT060
  FM141700 15005KT P6SM SCT060